LEAL

Alicante-Elche Airport

Airport
ICAO code
LEAL
IATA Code
ALC
Summary
ICAO Region
EUR
ICAO Territory
Location

Elche, Alicante

Serving
Alicante
Elevation
142 ft
Coordinates
38° 17' 2" N , 0° 33' 37" W
KCC
Metar
Observation
LEAL 281200Z 31017G27KT 280V350 CAVOK 18/02 Q1018 NOSIG
Station
Alicante / El Altet
Date/Time
2022-11-28 12:00:00
Wind direction
310°
Wind speed
17 kts
Lowest cloud amount
clouds and visibility OK
Temperature
18°C
Dew point
2°C
Humidity
34%
QNH
1018 hPa
Weather condition
n/a

Description

International airport serving Alicante, Spain. Alicante Airport, originally named El Altet is the main airport for the Province of Alicante and the Region of Murcia. The airport is situated 9 km southwest of Alicante in the municipality of Elche on Mediterranean coast.

Climatology

Dry-summer subtropical ”Mediterranean" climate (Köppen climate classification Csa) - characterized by hot, dry summers and mild winters. During the summer, subtropical high pressure cells dominate, making rainfall unlikely except for the occasional thunderstorm. In the winter, periodic storms bring rain (snow at higher elevations).

Runways

Designator Length Width Surface Rops
10/28 3000 45 ASP Yes/Yes

SKYbrary Partners:

Safety knowledge contributed by: